• Join FlightAware (Why Join?)
  • Login
  • US Flag GB Flag 
04:06 EDT


 

Airport Tracker/Info


-or-


 

Live Flight TrackerFlight Track Log ✈ N400CE ✈ 18-Nov-2013 ✈ KAVL - KAPF

Flight Track Log - Related Links

Times and Time Zones

All times are in EST time to prevent confusion due to time zone crossing. See the N400CE flight status page for this flight to view local times or setup timezone preferences in your user account.

Time Position Orientation Groundspeed Altitude Reporting Facility
EST Latitude Longitude Course Direction KTS MPH feet Rate Location/Type
12:42 35.4686 -82.6644 180° South 186 214 6,600  Level Atlanta Center
12:43 35.4289 -82.6522 166° South 136 157 7,500 720 Climbing Atlanta Center
12:44 35.1410 -82.5149 180° South  Level Estimated
12:44 35.3911 -82.6478 175° South 142 163 8,100  Level Atlanta Center
12:45 35.3494 -82.6408 172° South 142 163 8,900 780 Climbing Atlanta Center
12:46 35.3075 -82.6389 178° South 142 163 9,700 600 Climbing Atlanta Center
12:47 35.2658 -82.6372 178° South 142 163 10,100 420 Climbing Atlanta Center
12:48 35.2178 -82.6406 183° South 148 170 10,600 480 Climbing Atlanta Center
12:49 35.1739 -82.6286 167° South 158 182 11,100 480 Climbing Atlanta Center
12:50 35.1300 -82.6217 173° South 163 188 11,600 540 Climbing Atlanta Center
12:51 35.0864 -82.6225 181° South 163 188 12,200 600 Climbing Atlanta Center
12:52 35.0403 -82.6181 175° South 158 182 12,800 540 Climbing Atlanta Center
12:53 34.9986 -82.6111 172° South 158 182 13,300 600 Climbing Atlanta Center
12:54 34.9525 -82.6094 178° South 158 182 14,000 600 Climbing Atlanta Center
12:55 34.9067 -82.6028 173° South 158 182 14,600 600 Climbing Atlanta Center
12:56 34.8647 -82.5958 172° South 158 182 15,200 600 Climbing Atlanta Center
12:57 34.8208 -82.5889 173° South 158 182 15,800 600 Climbing Atlanta Center
12:58 34.7769 -82.5847 176° South 158 182 16,400 480 Climbing Atlanta Center
12:59 34.7331 -82.5778 173° South 158 182 16,800 300 Climbing Atlanta Center
13:00 34.6869 -82.5711 173° South 163 188 17,100 60 Climbing Atlanta Center
13:01 34.6308 -82.5694 179° South 175 201 17,000 -60 Descending Atlanta Center
13:02 34.5806 -82.5653 176° South 180 207 17,000  Level Atlanta Center
13:03 34.5283 -82.5639 179° South 180 207 17,000  Level Atlanta Center
13:04 34.4761 -82.5572 174° South 180 207 17,000  Level Atlanta Center
13:05 34.4219 -82.5531 176° South 185 213 17,000  Level Atlanta Center
13:06 34.3717 -82.5489 176° South 185 213 17,000  Level Atlanta Center
13:07 34.3175 -82.5447 176° South 185 213 17,000  Level Atlanta Center
13:08 34.2631 -82.5408 177° South 196 226 17,000  Level Atlanta Center
13:09 34.2108 -82.5367 176° South 196 226 17,000  Level Atlanta Center
13:10 34.1586 -82.5325 176° South 196 226 17,000  Level Atlanta Center
13:11 34.0958 -82.5311 179° South 203 234 17,000  Level Atlanta Center
13:12 34.0436 -82.5247 174° South 203 234 17,000  Level Atlanta Center
13:13 33.9914 -82.5181 174° South 194 223 17,000  Level Atlanta Center
13:14 33.9392 -82.5139 176° South 194 223 17,000  Level Atlanta Center
13:15 33.8869 -82.5050 172° South 204 235 17,000  Level Atlanta Center
13:16 33.8325 -82.5008 176° South 204 235 17,000  Level Atlanta Center
13:17 33.7825 -82.4967 176° South 188 216 17,000  Level Atlanta Center
13:18 33.7219 -82.4928 177° South 209 241 17,000  Level Atlanta Center
13:19 33.6675 -82.4864 174° South 198 228 17,000  Level Atlanta Center
13:20 33.6089 -82.4800 175° South 198 228 17,000  Level Atlanta Center
13:21 33.5589 -82.4733 174° South 193 222 17,100  Climbing Atlanta Center
13:22 33.5067 -82.4642 172° South 198 228 17,100  Level Atlanta Center
13:23 33.4500 -82.4578 175° South 203 234 17,100 -60 Level Atlanta Center
13:24 33.3958 -82.4514 174° South 203 234 17,000  Descending Atlanta Center
13:25 33.3394 -82.4475 177° South 198 228 17,100  Climbing Atlanta Center
13:26 33.2869 -82.4358 169° South 192 221 17,100  Level Atlanta Center
13:27 33.2328 -82.4319 177° South 197 227 17,100 -60 Level Atlanta Center
13:28 33.1806 -82.4281 176° South 202 232 17,000  Descending Atlanta Center
13:29 33.1261 -82.4217 174° South 202 232 17,100  Climbing Atlanta Center
13:30 33.0717 -82.4153 174° South 202 232 17,000 -60 Descending Atlanta Center
13:31 33.0175 -82.4111 176° South 197 227 17,000  Level Atlanta Center
13:32 32.9653 -82.4072 176° South 197 227 17,100  Climbing Atlanta Center
13:33 32.9086 -82.4008 175° South 197 227 17,000 -60 Descending Atlanta Center
13:34 32.8564 -82.3944 174° South 197 227 17,000  Level Atlanta Center
13:35 32.8042 -82.3928 178° South 197 227 17,100  Climbing Atlanta Center
13:36 32.7478 -82.3867 175° South 197 227 17,000 -60 Descending Atlanta Center
13:37 32.6956 -82.3778 172° South 197 227 17,000  Level Atlanta Center
13:39 32.6039 -82.3647 173° South 198 228 17,000  Level Jacksonville Center
13:40 32.5517 -82.3628 178° South 198 228 17,000  Level Jacksonville Center
13:41 32.4972 -82.3581 176° South 198 228 17,000  Level Jacksonville Center
13:42 32.4450 -82.3511 174° South 198 228 17,000  Level Jacksonville Center
13:43 32.3928 -82.3439 173° South 198 228 17,000  Level Jacksonville Center
13:44 32.3386 -82.3247 163° South 198 228 17,000  Level Jacksonville Center
13:45 32.2861 -82.3003 159° South 206 237 17,000  Level Jacksonville Center
13:46 32.2361 -82.2811 162° South 206 237 17,000  Level Jacksonville Center
13:47 32.1794 -82.2569 160° South 206 237 17,000  Level Jacksonville Center
13:48 32.1314 -82.2350 159° South 206 237 17,000  Level Jacksonville Center
13:49 32.0728 -82.2111 161° South 206 237 17,000  Level Jacksonville Center
13:50 32.0164 -82.1869 160° South 206 237 17,000  Level Jacksonville Center
13:51 31.9683 -82.1678 161° South 206 237 17,000  Level Jacksonville Center
13:52 31.9075 -82.1436 161° South 206 237 17,000  Level Jacksonville Center
13:53 31.8531 -82.1222 162° South 211 243 17,000  Level Jacksonville Center
13:54 31.8050 -82.1006 159° South 206 237 17,000  Level Jacksonville Center
13:55 31.7464 -82.0767 161° South 206 237 17,000  Level Jacksonville Center
13:56 31.6961 -82.0550 160° South 206 237 17,000  Level Jacksonville Center
13:57 31.6375 -82.0286 159° South 206 237 17,000 -120 Level Jacksonville Center
13:58 31.5808 -82.0072 162° South 206 237 16,800 -240 Descending Jacksonville Center
13:59 31.5306 -81.9883 162° South 215 247 16,600 -240 Descending Jacksonville Center
14:00 31.4658 -81.9622 161° South 215 247 16,400 -240 Descending Jacksonville Center
14:01 31.4156 -81.9481 166° South 220 253 16,200 -180 Descending Jacksonville Center
14:02 31.3592 -81.9292 164° South 220 253 16,100 -60 Descending Jacksonville Center
14:03 31.3044 -81.8933 151° Southeast 220 253 16,100  Level Jacksonville Center
14:04 31.2542 -81.8550 147° Southeast 220 253 16,100  Level Jacksonville Center
14:05 31.2078 -81.8142 143° Southeast 220 253 16,100  Level Jacksonville Center
14:06 31.1572 -81.7758 147° Southeast 220 253 16,100  Level Jacksonville Center
14:07 31.1069 -81.7375 147° Southeast 214 246 16,100  Level Jacksonville Center
14:08 31.0564 -81.6994 147° Southeast 214 246 16,100  Level Jacksonville Center
14:09 31.0081 -81.6686 151° Southeast 214 246 16,100  Level Jacksonville Center
14:10 30.9619 -81.6328 146° Southeast 209 241 16,100 -60 Level Jacksonville Center
14:11 30.9175 -81.5969 145° Southeast 204 235 16,000  Descending Jacksonville Center
14:12 30.8733 -81.5589 144° Southeast 198 228 16,100  Climbing Jacksonville Center
14:13 30.8250 -81.5258 150° Southeast 192 221 16,100  Level Jacksonville Center
14:14 30.7808 -81.4900 145° Southeast 192 221 16,100  Level Jacksonville Center
14:15 30.7344 -81.4569 149° Southeast 192 221 16,100  Level Jacksonville Center
14:16 30.6844 -81.4578 181° South 174 200 16,100  Level Jacksonville Center
14:17 30.6342 -81.4586 181° South 174 200 16,100  Level Jacksonville Center
14:18 30.5822 -81.4664 187° South 185 213 16,100  Level Jacksonville Center
14:19 30.5300 -81.4722 185° South 185 213 16,100  Level Jacksonville Center
14:20 30.4778 -81.4728 181° South 190 219 16,100  Level Jacksonville Center
14:21 30.4278 -81.4761 183° South 190 219 16,100  Level Jacksonville Center
14:22 30.3778 -81.4911 195° South 190 219 16,100 -60 Level Jacksonville Center
14:23 30.3300 -81.5039 193° South 185 213 16,000 -60 Descending Jacksonville Center
14:24 30.2800 -81.5142 190° South 185 213 16,000  Level Jacksonville Center
14:25 30.2300 -81.5269 192° South 185 213 16,100  Climbing Jacksonville Center
14:26 30.1822 -81.5494 202° Southwest 185 213 16,100  Level Jacksonville Center
14:27 30.1344 -81.5739 204° Southwest 190 219 16,100  Level Jacksonville Center
14:28 30.0867 -81.5964 202° Southwest 190 219 16,100  Level Jacksonville Center
14:29 30.0389 -81.6161 200° South 190 219 16,100  Level Jacksonville Center
14:30 29.9931 -81.6408 205° Southwest 190 219 16,100 -60 Level Jacksonville Center
14:31 29.9494 -81.6700 210° Southwest 190 219 16,000  Descending Jacksonville Center
14:32 29.9081 -81.6969 209° Southwest 190 219 16,100  Climbing Jacksonville Center
14:33 29.8644 -81.7286 212° Southwest 179 206 16,100 -60 Level Jacksonville Center
14:34 29.8208 -81.7578 210° Southwest 179 206 16,000 -60 Descending Jacksonville Center
14:35 29.7775 -81.7869 210° Southwest 179 206 16,000  Level Jacksonville Center
14:36 29.7358 -81.8161 211° Southwest 179 206 16,000  Level Jacksonville Center
14:37 29.6922 -81.8453 210° Southwest 179 206 16,000 60 Level Jacksonville Center
14:38 29.6486 -81.8722 208° Southwest 179 206 16,200 180 Climbing Jacksonville Center
14:39 29.6050 -81.8964 206° Southwest 179 206 16,400 180 Climbing Jacksonville Center
14:40 29.5633 -81.9208 207° Southwest 179 206 16,600 120 Climbing Jacksonville Center
14:41 29.5153 -81.9214 181° South 169 194 16,700 120 Climbing Jacksonville Center
14:42 29.4611 -81.9100 170° South 169 194 16,900 180 Climbing Jacksonville Center
14:43 29.4108 -81.9056 176° South 179 206 17,100  Climbing Jacksonville Center
14:44 29.3567 -81.8989 174° South 185 213 17,000 -60 Descending Jacksonville Center
14:45 29.3022 -81.8947 176° South 196 226 17,000  Level Jacksonville Center
14:46 29.2458 -81.8906 176° South 196 226 17,000  Level Jacksonville Center
14:47 29.2000 -81.8817 170° South 196 226 17,000  Level Jacksonville Center
14:48 29.1436 -81.8822 180° South 196 226 17,000 -60 Level Jacksonville Center
14:49 29.0914 -81.8731 171° South 196 226 16,900  Descending Jacksonville Center
14:50 29.0328 -81.8689 176° South 196 226 17,000  Climbing Jacksonville Center
14:51 28.9828 -81.8625 174° South 196 226 17,000  Level Jacksonville Center
14:52 28.9219 -81.8558 175° South 196 226 17,000  Level Jacksonville Center
14:53 28.8719 -81.8494 174° South 196 226 17,000  Level Jacksonville Center
14:54 28.8175 -81.8406 172° South 196 226 17,000  Level Jacksonville Center
14:55 28.7675 -81.8339 173° South 196 226 17,000 -180 Level Jacksonville Center
14:56 28.7111 -81.8275 174° South 196 226 16,700 -420 Descending Jacksonville Center
14:57 28.6547 -81.8256 178° South 201 231 16,200 -120 Descending Jacksonville Center
14:58 28.6003 -81.8239 178° South 201 231 16,500 60 Climbing Jacksonville Center
14:59 28.5503 -81.8197 176° South 194 223 16,400 -60 Descending Jacksonville Center
15:00 28.4919 -81.8225 182° South 194 223 16,400  Level Jacksonville Center
15:01 28.4192 -81.8225 180° South 198 228 16,400  Level Miami Center
15:02 28.3631 -81.8225 180° South 198 228 16,400  Level Miami Center
15:03 28.3108 -81.8225 180° South 198 228 16,500  Climbing Miami Center
15:04 28.2586 -81.8225 180° South 198 228 16,500  Level Miami Center
15:05 28.2044 -81.8203 178° South 198 228 16,500  Level Miami Center
15:06 28.1522 -81.8203 180° South 198 228 16,500  Level Miami Center
15:07 28.0981 -81.8203 180° South 198 228 16,500  Level Miami Center
15:08 28.0439 -81.8203 180° South 198 228 16,500  Level Miami Center
15:09 27.9897 -81.8203 180° South 198 228 16,500  Level Miami Center
15:10 27.9353 -81.8203 180° South 198 228 16,500  Level Miami Center
15:11 27.8811 -81.8200 180° South 198 228 16,500  Level Miami Center
15:12 27.8269 -81.8200 180° South 198 228 16,500  Level Miami Center
15:13 27.7642 -81.8197 180° South 198 228 16,500  Level Miami Center
15:14 27.7100 -81.8219 182° South 198 228 16,500  Level Miami Center
15:15 27.6556 -81.8219 180° South 198 228 16,500  Level Miami Center
15:16 27.6056 -81.8222 180° South 198 228 16,500  Level Miami Center
15:17 27.5431 -81.8219 180° South 198 228 16,500 -240 Level Miami Center
15:18 27.4867 -81.8217 180° South 198 228 16,100 -600 Descending Miami Center
15:19 27.4261 -81.8239 182° South 203 234 15,300 -780 Descending Miami Center
15:20 27.3633 -81.8258 182° South 219 252 14,600 -600 Descending Miami Center
15:21 27.3028 -81.8303 184° South 219 252 14,100 -600 Descending Miami Center
15:22 27.2442 -81.8322 182° South 219 252 13,400 -840 Descending Miami Center
15:23 27.1814 -81.8367 184° South 219 252 12,500 -1,020 Descending Miami Center
15:24 27.1208 -81.8386 182° South 219 252 11,400 -1,020 Descending Miami Center
15:25 27.0581 -81.8406 182° South 219 252 10,500 -1,200 Descending Miami Center
15:26 26.9975 -81.8475 186° South 224 258 9,100 -1,320 Descending Miami Center
15:27 26.9347 -81.8517 183° South 224 258 7,900 -1,320 Descending Miami Center
15:28 26.8719 -81.8558 183° South 230 265 6,500 -1,440 Descending Miami Center
15:29 26.8097 -81.8394 167° South 230 265 5,100 -1,200 Descending Miami Center
15:30 26.7542 -81.8208 163° South 230 265 4,100 -840 Descending Miami Center
15:31 26.7003 -81.8044 165° South 215 247 3,500 -600 Descending Miami Center
15:33 26.6329 -81.7938 172° South  Level FlightAware Approximate
15:40 26.2808 -81.7667 180° South  Level FlightAware Approximate
15:41 26.2303 -81.7667 180° South  Level FlightAware Approximate
15:42 26.1799 -81.7667 180° South  Level FlightAware Approximate
15:43 26.1500 -81.7667 180° South  Level FlightAware Approximate
15:44 26.1524 -81.7756 180° South  Level Estimated
15:45 26.1524 -81.7756 180° South  Level Estimated
15:46 26.1524 -81.7756 180° South  Level Estimated
15:47 26.1524 -81.7756 180° South  Level Estimated
15:48 26.1524 -81.7756 180° South  Level Estimated
15:49 26.1524 -81.7756 180° South  Level Estimated
15:50 26.1524 -81.7756 180° South  Level Estimated
15:51 26.1524 -81.7756 180° South  Level Estimated
15:52 26.1524 -81.7756 180° South  Level Estimated
15:53 26.1524 -81.7756 180° South  Level Estimated